Molina, CO

1:51 PM MST on March 03, 2015 (GMT -0700)
Coon Creek | Change Station
CLOSE
Current Station
Personal Weather Station
Location: Mesa, CO
Elevation: 8050 ft
Nearby Weather Stations

Elev 8050 ft 39.09 °N, 108.10 °W | Updated 5 minutes ago

Overcast
Overcast
32.3 °F
Feels Like 24 °F
N
10.0
Wind Variable Wind from North

Today
High -- | Low -- °F
--% Chance of Precip.
Yesterday
High -- | Low -- °F
Precip. -- in
6:42 AM 6:06 PM
Waxing Gibbous, 97% visible
Pressure 29.74 in
Visibility 10.0 miles
Clouds Scattered Clouds 2400 ft
Mostly Cloudy 4400 ft
Overcast 7000 ft
Windchill 24 °F
Dew Point 20 °F
Humidity 61%
Rainfall 0.18 in
Snow Depth Not available.
UV 2 out of 12
Pollen 3.70 out of 12
Air Quality Not available.
Flu Activity Not available.
METAR KGJT 031953Z 00000KT 10SM SCT024 BKN044 OVC070 04/M02 A2976 RMK AO2 RAB1859E20 SLP070 VCSH P0000 T00441022

More Conditions Fewer Conditions

Pressure 29.74 in
Visibility 10.0 miles
Clouds Scattered Clouds 2400 ft
Mostly Cloudy 4400 ft
Overcast 7000 ft
Windchill 24 °F
Dew Point 20 °F
Humidity 61%
Rainfall 0.18 in
Snow Depth Not available.
UV 2 out of 12
Pollen 3.70 out of 12
Air Quality Not available.
Flu Activity Not available.
METAR KGJT 031953Z 00000KT 10SM SCT024 BKN044 OVC070 04/M02 A2976 RMK AO2 RAB1859E20 SLP070 VCSH P0000 T00441022

More Conditions Fewer Conditions

10-Day Weather Forecast

Almanac

Astronomy

Mar. 03, 2015 Rise Set
Actual Time
Civil Twilight
Nautical Twilight
Astronomical Twilight
Moon
Length of Visible Light
Length of Day
Tomorrow will be .
, % of the Moon is Illuminated

Today's Extremes

State Highs State Lows

Community

WunderPhotos

Upload Photos

1,802,246 photos uploaded!

WunderBlogs® & News

Nearby

Air Quality

  Air Quality AQ Index Pollutant
Not available.

Snow Depth

Station Depth Elevation

Earthquake Activity

City Distance Mag. Time & Date
Minimum magnitude displayed is 2.5.

Coastal Water Temperatures

Place Temperature

Nearby Weather Stations